sensor_id;sensor_type;location;lat;lon;timestamp;P1;durP1;ratioP1;P2;durP2;ratioP2
39104;SDS011;46464;51.154;13.812;2022-12-24T00:01:35;2.60;;;1.20;;
39104;SDS011;46464;51.154;13.812;2022-12-24T00:04:02;4.45;;;1.00;;
39104;SDS011;46464;51.154;13.812;2022-12-24T00:06:28;2.70;;;0.98;;
39104;SDS011;46464;51.154;13.812;2022-12-24T00:08:55;2.78;;;1.00;;
39104;SDS011;46464;51.154;13.812;2022-12-24T00:11:21;3.25;;;1.23;;
39104;SDS011;46464;51.154;13.812;2022-12-24T00:13:48;2.80;;;1.05;;
39104;SDS011;46464;51.154;13.812;2022-12-24T00:16:15;3.67;;;1.10;;
39104;SDS011;46464;51.154;13.812;2022-12-24T00:18:41;2.35;;;1.52;;
39104;SDS011;46464;51.154;13.812;2022-12-24T00:21:11;3.35;;;1.10;;
39104;SDS011;46464;51.154;13.812;2022-12-24T00:28:31;1.90;;;0.80;;
39104;SDS011;46464;51.154;13.812;2022-12-24T00:30:58;2.45;;;0.80;;
39104;SDS011;46464;51.154;13.812;2022-12-24T00:33:25;3.25;;;1.00;;
39104;SDS011;46464;51.154;13.812;2022-12-24T00:35:51;3.72;;;0.93;;
39104;SDS011;46464;51.154;13.812;2022-12-24T00:38:18;3.53;;;0.68;;
39104;SDS011;46464;51.154;13.812;2022-12-24T00:40:45;1.77;;;0.80;;
39104;SDS011;46464;51.154;13.812;2022-12-24T00:43:11;2.20;;;0.70;;
39104;SDS011;46464;51.154;13.812;2022-12-24T00:45:38;4.25;;;1.00;;
39104;SDS011;46464;51.154;13.812;2022-12-24T00:48:04;5.65;;;0.90;;
39104;SDS011;46464;51.154;13.812;2022-12-24T00:50:31;3.05;;;0.75;;
39104;SDS011;46464;51.154;13.812;2022-12-24T00:52:57;3.20;;;1.00;;
39104;SDS011;46464;51.154;13.812;2022-12-24T00:55:24;1.52;;;0.60;;
39104;SDS011;46464;51.154;13.812;2022-12-24T00:57:50;1.80;;;0.80;;
39104;SDS011;46464;51.154;13.812;2022-12-24T01:00:17;2.10;;;0.70;;
39104;SDS011;46464;51.154;13.812;2022-12-24T01:02:43;2.97;;;1.08;;
39104;SDS011;46464;51.154;13.812;2022-12-24T01:05:11;5.88;;;1.30;;
39104;SDS011;46464;51.154;13.812;2022-12-24T01:10:06;5.00;;;1.00;;
39104;SDS011;46464;51.154;13.812;2022-12-24T01:12:34;4.28;;;1.10;;
39104;SDS011;46464;51.154;13.812;2022-12-24T01:15:00;4.65;;;1.50;;
39104;SDS011;46464;51.154;13.812;2022-12-24T01:17:27;4.30;;;1.30;;
39104;SDS011;46464;51.154;13.812;2022-12-24T01:19:53;5.32;;;1.98;;
39104;SDS011;46464;51.154;13.812;2022-12-24T01:22:19;4.25;;;1.23;;
39104;SDS011;46464;51.154;13.812;2022-12-24T01:24:46;5.25;;;1.35;;
39104;SDS011;46464;51.154;13.812;2022-12-24T01:27:13;4.50;;;1.30;;
39104;SDS011;46464;51.154;13.812;2022-12-24T01:29:39;7.93;;;2.13;;
39104;SDS011;46464;51.154;13.812;2022-12-24T01:32:06;3.25;;;1.38;;
39104;SDS011;46464;51.154;13.812;2022-12-24T01:34:32;10.57;;;2.65;;
39104;SDS011;46464;51.154;13.812;2022-12-24T01:36:59;8.68;;;1.55;;
39104;SDS011;46464;51.154;13.812;2022-12-24T01:39:25;6.85;;;1.30;;
39104;SDS011;46464;51.154;13.812;2022-12-24T01:41:52;6.05;;;1.20;;
39104;SDS011;46464;51.154;13.812;2022-12-24T01:44:41;9.65;;;1.70;;
39104;SDS011;46464;51.154;13.812;2022-12-24T01:47:13;9.02;;;2.83;;
39104;SDS011;46464;51.154;13.812;2022-12-24T01:49:45;7.88;;;1.63;;
39104;SDS011;46464;51.154;13.812;2022-12-24T01:52:20;6.45;;;1.83;;
39104;SDS011;46464;51.154;13.812;2022-12-24T01:54:51;5.80;;;1.58;;
39104;SDS011;46464;51.154;13.812;2022-12-24T01:57:23;5.93;;;2.25;;
39104;SDS011;46464;51.154;13.812;2022-12-24T01:59:57;7.85;;;1.80;;
39104;SDS011;46464;51.154;13.812;2022-12-24T02:02:27;7.13;;;1.77;;
39104;SDS011;46464;51.154;13.812;2022-12-24T02:07:35;5.60;;;1.75;;
39104;SDS011;46464;51.154;13.812;2022-12-24T02:10:03;8.38;;;2.10;;
39104;SDS011;46464;51.154;13.812;2022-12-24T02:12:31;6.65;;;2.20;;
39104;SDS011;46464;51.154;13.812;2022-12-24T02:15:01;10.23;;;2.30;;
39104;SDS011;46464;51.154;13.812;2022-12-24T02:17:29;8.55;;;2.17;;
39104;SDS011;46464;51.154;13.812;2022-12-24T02:23:06;12.47;;;2.07;;
39104;SDS011;46464;51.154;13.812;2022-12-24T02:25:40;5.80;;;1.58;;
39104;SDS011;46464;51.154;13.812;2022-12-24T02:31:27;7.88;;;1.60;;
39104;SDS011;46464;51.154;13.812;2022-12-24T02:37:13;7.78;;;1.90;;
39104;SDS011;46464;51.154;13.812;2022-12-24T02:39:46;5.18;;;1.50;;
39104;SDS011;46464;51.154;13.812;2022-12-24T02:42:19;6.00;;;1.70;;
39104;SDS011;46464;51.154;13.812;2022-12-24T02:44:51;7.90;;;1.77;;
39104;SDS011;46464;51.154;13.812;2022-12-24T02:47:21;6.75;;;1.40;;
39104;SDS011;46464;51.154;13.812;2022-12-24T02:49:52;7.13;;;1.30;;
39104;SDS011;46464;51.154;13.812;2022-12-24T02:54:57;9.98;;;1.55;;
39104;SDS011;46464;51.154;13.812;2022-12-24T03:12:43;7.35;;;1.42;;
39104;SDS011;46464;51.154;13.812;2022-12-24T03:15:14;5.25;;;1.45;;
39104;SDS011;46464;51.154;13.812;2022-12-24T03:17:44;5.88;;;1.50;;
39104;SDS011;46464;51.154;13.812;2022-12-24T03:20:13;7.60;;;1.35;;
39104;SDS011;46464;51.154;13.812;2022-12-24T03:22:44;8.00;;;1.75;;
39104;SDS011;46464;51.154;13.812;2022-12-24T03:27:38;7.68;;;1.30;;
39104;SDS011;46464;51.154;13.812;2022-12-24T03:30:12;7.28;;;1.45;;
39104;SDS011;46464;51.154;13.812;2022-12-24T03:32:39;10.32;;;1.63;;
39104;SDS011;46464;51.154;13.812;2022-12-24T03:35:06;6.53;;;1.35;;
39104;SDS011;46464;51.154;13.812;2022-12-24T03:37:33;6.05;;;1.20;;
39104;SDS011;46464;51.154;13.812;2022-12-24T03:40:00;7.35;;;1.60;;
39104;SDS011;46464;51.154;13.812;2022-12-24T03:42:26;9.32;;;1.63;;
39104;SDS011;46464;51.154;13.812;2022-12-24T03:44:52;5.47;;;1.27;;
39104;SDS011;46464;51.154;13.812;2022-12-24T03:47:19;6.75;;;2.17;;
39104;SDS011;46464;51.154;13.812;2022-12-24T03:49:45;4.90;;;1.55;;
39104;SDS011;46464;51.154;13.812;2022-12-24T03:52:12;8.23;;;1.40;;
39104;SDS011;46464;51.154;13.812;2022-12-24T03:54:38;7.63;;;1.40;;
39104;SDS011;46464;51.154;13.812;2022-12-24T03:57:05;8.18;;;1.42;;
39104;SDS011;46464;51.154;13.812;2022-12-24T03:59:31;5.18;;;1.20;;
39104;SDS011;46464;51.154;13.812;2022-12-24T04:01:58;6.25;;;1.25;;
39104;SDS011;46464;51.154;13.812;2022-12-24T04:04:25;9.25;;;1.40;;
39104;SDS011;46464;51.154;13.812;2022-12-24T04:06:51;5.72;;;1.40;;
39104;SDS011;46464;51.154;13.812;2022-12-24T04:09:18;7.80;;;1.35;;
39104;SDS011;46464;51.154;13.812;2022-12-24T04:11:44;6.45;;;1.30;;
39104;SDS011;46464;51.154;13.812;2022-12-24T04:14:11;11.50;;;2.00;;
39104;SDS011;46464;51.154;13.812;2022-12-24T04:16:37;7.07;;;1.55;;
39104;SDS011;46464;51.154;13.812;2022-12-24T04:19:04;7.82;;;1.58;;
39104;SDS011;46464;51.154;13.812;2022-12-24T04:21:30;10.07;;;2.22;;
39104;SDS011;46464;51.154;13.812;2022-12-24T04:23:57;6.05;;;1.17;;
39104;SDS011;46464;51.154;13.812;2022-12-24T04:26:23;6.80;;;1.30;;
39104;SDS011;46464;51.154;13.812;2022-12-24T04:28:50;6.07;;;1.73;;
39104;SDS011;46464;51.154;13.812;2022-12-24T04:31:16;5.25;;;1.13;;
39104;SDS011;46464;51.154;13.812;2022-12-24T04:33:43;8.15;;;1.15;;
39104;SDS011;46464;51.154;13.812;2022-12-24T04:36:11;6.30;;;1.40;;
39104;SDS011;46464;51.154;13.812;2022-12-24T04:38:40;5.82;;;1.20;;
39104;SDS011;46464;51.154;13.812;2022-12-24T04:41:07;7.90;;;1.48;;
39104;SDS011;46464;51.154;13.812;2022-12-24T04:43:45;6.20;;;0.88;;
39104;SDS011;46464;51.154;13.812;2022-12-24T04:46:13;6.70;;;1.15;;
39104;SDS011;46464;51.154;13.812;2022-12-24T04:48:44;6.13;;;1.50;;
39104;SDS011;46464;51.154;13.812;2022-12-24T04:51:15;4.15;;;1.15;;
39104;SDS011;46464;51.154;13.812;2022-12-24T04:53:42;4.13;;;1.05;;
39104;SDS011;46464;51.154;13.812;2022-12-24T04:56:10;4.60;;;1.30;;
39104;SDS011;46464;51.154;13.812;2022-12-24T04:58:39;5.65;;;1.48;;
39104;SDS011;46464;51.154;13.812;2022-12-24T05:01:06;5.88;;;1.30;;
39104;SDS011;46464;51.154;13.812;2022-12-24T05:03:34;5.90;;;1.30;;
39104;SDS011;46464;51.154;13.812;2022-12-24T05:06:04;7.78;;;1.20;;
39104;SDS011;46464;51.154;13.812;2022-12-24T05:08:33;4.30;;;1.50;;
39104;SDS011;46464;51.154;13.812;2022-12-24T05:11:00;6.30;;;1.02;;
39104;SDS011;46464;51.154;13.812;2022-12-24T05:13:27;5.95;;;1.10;;
39104;SDS011;46464;51.154;13.812;2022-12-24T05:16:07;5.72;;;1.25;;
39104;SDS011;46464;51.154;13.812;2022-12-24T05:21:00;8.00;;;1.85;;
39104;SDS011;46464;51.154;13.812;2022-12-24T05:23:27;7.35;;;1.23;;
39104;SDS011;46464;51.154;13.812;2022-12-24T05:28:56;5.32;;;1.20;;
39104;SDS011;46464;51.154;13.812;2022-12-24T05:31:25;6.90;;;2.13;;
39104;SDS011;46464;51.154;13.812;2022-12-24T05:33:52;6.57;;;1.38;;
39104;SDS011;46464;51.154;13.812;2022-12-24T05:36:20;6.55;;;1.35;;
39104;SDS011;46464;51.154;13.812;2022-12-24T05:38:47;8.40;;;1.75;;
39104;SDS011;46464;51.154;13.812;2022-12-24T05:41:14;4.28;;;1.50;;
39104;SDS011;46464;51.154;13.812;2022-12-24T05:43:41;11.50;;;2.67;;
39104;SDS011;46464;51.154;13.812;2022-12-24T05:46:09;10.52;;;1.77;;
39104;SDS011;46464;51.154;13.812;2022-12-24T05:48:37;9.82;;;1.92;;
39104;SDS011;46464;51.154;13.812;2022-12-24T05:51:04;12.02;;;1.60;;
39104;SDS011;46464;51.154;13.812;2022-12-24T05:53:32;6.57;;;1.65;;
39104;SDS011;46464;51.154;13.812;2022-12-24T05:56:10;5.53;;;1.60;;
39104;SDS011;46464;51.154;13.812;2022-12-24T05:58:39;8.68;;;1.80;;
39104;SDS011;46464;51.154;13.812;2022-12-24T06:01:06;6.40;;;1.45;;
39104;SDS011;46464;51.154;13.812;2022-12-24T06:03:34;8.70;;;1.75;;
39104;SDS011;46464;51.154;13.812;2022-12-24T06:08:33;6.32;;;1.27;;
39104;SDS011;46464;51.154;13.812;2022-12-24T06:11:01;5.78;;;1.60;;
39104;SDS011;46464;51.154;13.812;2022-12-24T06:13:30;8.02;;;1.58;;
39104;SDS011;46464;51.154;13.812;2022-12-24T06:15:57;8.30;;;1.77;;
39104;SDS011;46464;51.154;13.812;2022-12-24T06:18:25;6.05;;;1.77;;
39104;SDS011;46464;51.154;13.812;2022-12-24T06:20:52;9.90;;;1.77;;
39104;SDS011;46464;51.154;13.812;2022-12-24T06:23:20;6.25;;;1.30;;
39104;SDS011;46464;51.154;13.812;2022-12-24T06:25:47;5.85;;;1.88;;
39104;SDS011;46464;51.154;13.812;2022-12-24T06:28:14;6.97;;;1.17;;
39104;SDS011;46464;51.154;13.812;2022-12-24T06:33:11;9.52;;;1.70;;
39104;SDS011;46464;51.154;13.812;2022-12-24T06:35:38;8.02;;;1.40;;
39104;SDS011;46464;51.154;13.812;2022-12-24T06:38:04;7.10;;;1.50;;
39104;SDS011;46464;51.154;13.812;2022-12-24T06:40:31;8.40;;;1.45;;
39104;SDS011;46464;51.154;13.812;2022-12-24T06:42:57;6.97;;;1.95;;
39104;SDS011;46464;51.154;13.812;2022-12-24T06:45:24;6.57;;;1.48;;
39104;SDS011;46464;51.154;13.812;2022-12-24T06:47:50;5.93;;;1.00;;
39104;SDS011;46464;51.154;13.812;2022-12-24T06:50:17;6.38;;;1.27;;
39104;SDS011;46464;51.154;13.812;2022-12-24T06:52:43;7.35;;;1.33;;
39104;SDS011;46464;51.154;13.812;2022-12-24T06:55:10;5.70;;;1.38;;
39104;SDS011;46464;51.154;13.812;2022-12-24T06:57:37;11.48;;;2.30;;
39104;SDS011;46464;51.154;13.812;2022-12-24T07:00:03;5.93;;;1.50;;
39104;SDS011;46464;51.154;13.812;2022-12-24T07:02:32;7.35;;;1.80;;
39104;SDS011;46464;51.154;13.812;2022-12-24T07:04:59;10.60;;;2.47;;
39104;SDS011;46464;51.154;13.812;2022-12-24T07:07:26;8.00;;;1.35;;
39104;SDS011;46464;51.154;13.812;2022-12-24T07:09:52;9.30;;;2.10;;
39104;SDS011;46464;51.154;13.812;2022-12-24T07:12:19;10.80;;;1.40;;
39104;SDS011;46464;51.154;13.812;2022-12-24T07:14:45;10.38;;;1.45;;
39104;SDS011;46464;51.154;13.812;2022-12-24T07:17:12;6.10;;;1.60;;
39104;SDS011;46464;51.154;13.812;2022-12-24T07:19:38;8.23;;;1.85;;
39104;SDS011;46464;51.154;13.812;2022-12-24T07:22:05;9.18;;;1.70;;
39104;SDS011;46464;51.154;13.812;2022-12-24T07:24:40;7.78;;;1.77;;
39104;SDS011;46464;51.154;13.812;2022-12-24T07:27:06;7.18;;;1.50;;
39104;SDS011;46464;51.154;13.812;2022-12-24T07:29:34;12.75;;;3.08;;
39104;SDS011;46464;51.154;13.812;2022-12-24T07:32:00;7.32;;;1.45;;
39104;SDS011;46464;51.154;13.812;2022-12-24T07:34:27;10.02;;;2.20;;
39104;SDS011;46464;51.154;13.812;2022-12-24T07:36:53;11.15;;;2.47;;
39104;SDS011;46464;51.154;13.812;2022-12-24T07:39:20;6.65;;;1.65;;
39104;SDS011;46464;51.154;13.812;2022-12-24T07:41:46;9.70;;;1.98;;
39104;SDS011;46464;51.154;13.812;2022-12-24T07:44:13;7.10;;;1.77;;
39104;SDS011;46464;51.154;13.812;2022-12-24T07:46:41;8.68;;;2.63;;
39104;SDS011;46464;51.154;13.812;2022-12-24T07:49:09;10.93;;;2.72;;
39104;SDS011;46464;51.154;13.812;2022-12-24T07:51:35;9.15;;;2.05;;
39104;SDS011;46464;51.154;13.812;2022-12-24T07:56:30;7.35;;;1.67;;
39104;SDS011;46464;51.154;13.812;2022-12-24T07:58:58;9.23;;;1.80;;
39104;SDS011;46464;51.154;13.812;2022-12-24T08:01:24;9.68;;;2.53;;
39104;SDS011;46464;51.154;13.812;2022-12-24T08:03:51;8.27;;;2.28;;
39104;SDS011;46464;51.154;13.812;2022-12-24T08:06:20;9.70;;;1.77;;
39104;SDS011;46464;51.154;13.812;2022-12-24T08:08:47;8.10;;;1.70;;
39104;SDS011;46464;51.154;13.812;2022-12-24T08:11:15;9.90;;;2.47;;
39104;SDS011;46464;51.154;13.812;2022-12-24T08:13:42;8.60;;;1.40;;
39104;SDS011;46464;51.154;13.812;2022-12-24T08:16:08;9.88;;;2.00;;
39104;SDS011;46464;51.154;13.812;2022-12-24T08:18:35;7.10;;;2.08;;
39104;SDS011;46464;51.154;13.812;2022-12-24T08:21:02;8.23;;;1.50;;
39104;SDS011;46464;51.154;13.812;2022-12-24T08:23:28;7.40;;;2.58;;
39104;SDS011;46464;51.154;13.812;2022-12-24T08:25:55;8.65;;;2.00;;
39104;SDS011;46464;51.154;13.812;2022-12-24T08:28:21;7.97;;;1.67;;
39104;SDS011;46464;51.154;13.812;2022-12-24T08:30:48;7.63;;;2.03;;
39104;SDS011;46464;51.154;13.812;2022-12-24T08:33:16;8.70;;;2.28;;
39104;SDS011;46464;51.154;13.812;2022-12-24T08:35:47;6.95;;;1.92;;
39104;SDS011;46464;51.154;13.812;2022-12-24T08:38:18;6.47;;;1.70;;
39104;SDS011;46464;51.154;13.812;2022-12-24T08:40:45;14.85;;;2.00;;
39104;SDS011;46464;51.154;13.812;2022-12-24T08:43:17;9.43;;;1.75;;
39104;SDS011;46464;51.154;13.812;2022-12-24T08:45:45;10.50;;;1.50;;
39104;SDS011;46464;51.154;13.812;2022-12-24T08:48:14;10.07;;;1.85;;
39104;SDS011;46464;51.154;13.812;2022-12-24T08:50:41;8.93;;;1.80;;
39104;SDS011;46464;51.154;13.812;2022-12-24T08:53:08;9.05;;;2.55;;
39104;SDS011;46464;51.154;13.812;2022-12-24T08:55:35;6.28;;;1.55;;
39104;SDS011;46464;51.154;13.812;2022-12-24T08:58:02;8.00;;;1.63;;
39104;SDS011;46464;51.154;13.812;2022-12-24T09:00:29;6.05;;;1.50;;
39104;SDS011;46464;51.154;13.812;2022-12-24T09:02:56;7.88;;;1.63;;
39104;SDS011;46464;51.154;13.812;2022-12-24T09:05:23;7.68;;;1.88;;
39104;SDS011;46464;51.154;13.812;2022-12-24T09:07:51;7.55;;;1.92;;
39104;SDS011;46464;51.154;13.812;2022-12-24T09:10:17;10.27;;;3.40;;
39104;SDS011;46464;51.154;13.812;2022-12-24T09:12:44;9.15;;;2.17;;
39104;SDS011;46464;51.154;13.812;2022-12-24T09:15:10;11.48;;;1.70;;
39104;SDS011;46464;51.154;13.812;2022-12-24T09:17:37;7.95;;;1.63;;
39104;SDS011;46464;51.154;13.812;2022-12-24T09:20:04;7.03;;;1.52;;
39104;SDS011;46464;51.154;13.812;2022-12-24T09:22:35;7.97;;;1.65;;
39104;SDS011;46464;51.154;13.812;2022-12-24T09:25:03;9.25;;;1.60;;
39104;SDS011;46464;51.154;13.812;2022-12-24T09:27:31;8.75;;;1.80;;
39104;SDS011;46464;51.154;13.812;2022-12-24T09:29:58;11.15;;;3.22;;
39104;SDS011;46464;51.154;13.812;2022-12-24T09:32:25;7.55;;;1.88;;
39104;SDS011;46464;51.154;13.812;2022-12-24T09:34:51;10.32;;;2.55;;
39104;SDS011;46464;51.154;13.812;2022-12-24T09:37:18;11.68;;;1.90;;
39104;SDS011;46464;51.154;13.812;2022-12-24T09:39:45;10.98;;;2.38;;
39104;SDS011;46464;51.154;13.812;2022-12-24T09:42:18;8.27;;;1.98;;
39104;SDS011;46464;51.154;13.812;2022-12-24T09:45:00;10.52;;;1.98;;
39104;SDS011;46464;51.154;13.812;2022-12-24T09:47:42;7.80;;;2.35;;
39104;SDS011;46464;51.154;13.812;2022-12-24T09:50:23;11.80;;;2.92;;
39104;SDS011;46464;51.154;13.812;2022-12-24T09:52:57;8.32;;;2.55;;
39104;SDS011;46464;51.154;13.812;2022-12-24T09:55:34;12.85;;;3.70;;
39104;SDS011;46464;51.154;13.812;2022-12-24T09:58:14;9.80;;;3.28;;
39104;SDS011;46464;51.154;13.812;2022-12-24T10:00:53;10.00;;;2.10;;
39104;SDS011;46464;51.154;13.812;2022-12-24T10:03:22;10.35;;;2.67;;
39104;SDS011;46464;51.154;13.812;2022-12-24T10:17:29;12.20;;;3.20;;
39104;SDS011;46464;51.154;13.812;2022-12-24T10:26:22;9.68;;;2.17;;
39104;SDS011;46464;51.154;13.812;2022-12-24T10:29:16;11.00;;;2.08;;
39104;SDS011;46464;51.154;13.812;2022-12-24T10:34:44;10.75;;;2.25;;
39104;SDS011;46464;51.154;13.812;2022-12-24T10:37:24;10.80;;;2.65;;
39104;SDS011;46464;51.154;13.812;2022-12-24T10:39:54;11.63;;;2.63;;
39104;SDS011;46464;51.154;13.812;2022-12-24T10:42:22;10.45;;;2.70;;
39104;SDS011;46464;51.154;13.812;2022-12-24T10:44:54;11.45;;;2.15;;
39104;SDS011;46464;51.154;13.812;2022-12-24T10:47:25;9.35;;;2.20;;
39104;SDS011;46464;51.154;13.812;2022-12-24T10:50:03;11.10;;;2.53;;
39104;SDS011;46464;51.154;13.812;2022-12-24T10:52:50;10.35;;;2.65;;
39104;SDS011;46464;51.154;13.812;2022-12-24T10:55:25;12.32;;;3.92;;
39104;SDS011;46464;51.154;13.812;2022-12-24T10:58:06;9.50;;;2.60;;
39104;SDS011;46464;51.154;13.812;2022-12-24T11:00:40;13.02;;;3.10;;
39104;SDS011;46464;51.154;13.812;2022-12-24T11:05:37;11.05;;;2.75;;
39104;SDS011;46464;51.154;13.812;2022-12-24T11:08:05;10.52;;;2.30;;
39104;SDS011;46464;51.154;13.812;2022-12-24T11:11:04;11.18;;;2.50;;
39104;SDS011;46464;51.154;13.812;2022-12-24T11:13:33;13.30;;;2.30;;
39104;SDS011;46464;51.154;13.812;2022-12-24T11:18:44;10.43;;;3.25;;
39104;SDS011;46464;51.154;13.812;2022-12-24T11:21:24;9.70;;;2.00;;
39104;SDS011;46464;51.154;13.812;2022-12-24T11:23:52;11.73;;;3.33;;
39104;SDS011;46464;51.154;13.812;2022-12-24T11:26:26;10.70;;;2.97;;
39104;SDS011;46464;51.154;13.812;2022-12-24T11:31:33;11.35;;;3.00;;
39104;SDS011;46464;51.154;13.812;2022-12-24T11:36:50;9.65;;;2.15;;
39104;SDS011;46464;51.154;13.812;2022-12-24T11:39:24;7.88;;;2.10;;
39104;SDS011;46464;51.154;13.812;2022-12-24T11:41:52;8.95;;;2.65;;
39104;SDS011;46464;51.154;13.812;2022-12-24T11:44:22;10.25;;;2.55;;
39104;SDS011;46464;51.154;13.812;2022-12-24T11:46:54;8.57;;;1.70;;
39104;SDS011;46464;51.154;13.812;2022-12-24T11:49:23;9.45;;;1.95;;
39104;SDS011;46464;51.154;13.812;2022-12-24T11:51:59;8.35;;;1.98;;
39104;SDS011;46464;51.154;13.812;2022-12-24T11:54:28;6.70;;;1.58;;
39104;SDS011;46464;51.154;13.812;2022-12-24T11:56:59;9.05;;;1.73;;
39104;SDS011;46464;51.154;13.812;2022-12-24T11:59:40;8.35;;;2.40;;
39104;SDS011;46464;51.154;13.812;2022-12-24T12:04:53;8.35;;;2.25;;
39104;SDS011;46464;51.154;13.812;2022-12-24T12:07:33;7.13;;;1.50;;
39104;SDS011;46464;51.154;13.812;2022-12-24T12:10:18;5.80;;;1.35;;
39104;SDS011;46464;51.154;13.812;2022-12-24T12:15:52;11.02;;;2.67;;
39104;SDS011;46464;51.154;13.812;2022-12-24T12:18:34;4.95;;;1.42;;
39104;SDS011;46464;51.154;13.812;2022-12-24T12:21:05;7.38;;;2.85;;
39104;SDS011;46464;51.154;13.812;2022-12-24T12:23:57;10.77;;;3.10;;
39104;SDS011;46464;51.154;13.812;2022-12-24T12:26:28;5.40;;;1.58;;
39104;SDS011;46464;51.154;13.812;2022-12-24T12:29:09;7.10;;;1.95;;
39104;SDS011;46464;51.154;13.812;2022-12-24T12:31:46;8.82;;;2.83;;
39104;SDS011;46464;51.154;13.812;2022-12-24T12:36:54;10.95;;;1.85;;
39104;SDS011;46464;51.154;13.812;2022-12-24T12:39:23;5.15;;;1.58;;
39104;SDS011;46464;51.154;13.812;2022-12-24T12:58:22;8.70;;;1.77;;
39104;SDS011;46464;51.154;13.812;2022-12-24T13:00:57;5.30;;;1.45;;
39104;SDS011;46464;51.154;13.812;2022-12-24T13:03:42;11.40;;;1.70;;
39104;SDS011;46464;51.154;13.812;2022-12-24T13:12:39;7.35;;;2.22;;
39104;SDS011;46464;51.154;13.812;2022-12-24T13:15:10;4.47;;;1.50;;
39104;SDS011;46464;51.154;13.812;2022-12-24T13:20:48;8.63;;;2.72;;
39104;SDS011;46464;51.154;13.812;2022-12-24T13:23:17;10.55;;;2.28;;
39104;SDS011;46464;51.154;13.812;2022-12-24T13:25:47;8.38;;;2.63;;
39104;SDS011;46464;51.154;13.812;2022-12-24T13:30:46;8.85;;;2.00;;
39104;SDS011;46464;51.154;13.812;2022-12-24T13:49:38;8.32;;;2.22;;
39104;SDS011;46464;51.154;13.812;2022-12-24T13:54:38;11.65;;;2.63;;
39104;SDS011;46464;51.154;13.812;2022-12-24T13:57:29;9.60;;;3.20;;
39104;SDS011;46464;51.154;13.812;2022-12-24T14:02:39;7.82;;;2.13;;
39104;SDS011;46464;51.154;13.812;2022-12-24T14:05:16;8.43;;;2.28;;
39104;SDS011;46464;51.154;13.812;2022-12-24T14:07:48;6.40;;;1.85;;
39104;SDS011;46464;51.154;13.812;2022-12-24T14:10:22;6.88;;;2.38;;
39104;SDS011;46464;51.154;13.812;2022-12-24T14:12:51;7.85;;;2.05;;
39104;SDS011;46464;51.154;13.812;2022-12-24T14:18:17;7.68;;;2.20;;
39104;SDS011;46464;51.154;13.812;2022-12-24T14:20:47;6.40;;;1.92;;
39104;SDS011;46464;51.154;13.812;2022-12-24T14:23:27;8.48;;;2.00;;
39104;SDS011;46464;51.154;13.812;2022-12-24T14:25:59;7.95;;;2.00;;
39104;SDS011;46464;51.154;13.812;2022-12-24T14:28:30;7.13;;;1.70;;
39104;SDS011;46464;51.154;13.812;2022-12-24T14:31:02;6.55;;;1.67;;
39104;SDS011;46464;51.154;13.812;2022-12-24T14:33:32;9.80;;;2.22;;
39104;SDS011;46464;51.154;13.812;2022-12-24T14:36:00;7.38;;;1.95;;
39104;SDS011;46464;51.154;13.812;2022-12-24T14:38:28;10.75;;;2.30;;
39104;SDS011;46464;51.154;13.812;2022-12-24T14:46:23;7.78;;;3.30;;
39104;SDS011;46464;51.154;13.812;2022-12-24T14:48:53;6.68;;;2.25;;
39104;SDS011;46464;51.154;13.812;2022-12-24T14:51:34;7.50;;;2.25;;
39104;SDS011;46464;51.154;13.812;2022-12-24T14:54:27;8.02;;;2.50;;
39104;SDS011;46464;51.154;13.812;2022-12-24T14:59:42;8.20;;;2.22;;
39104;SDS011;46464;51.154;13.812;2022-12-24T15:05:13;6.85;;;2.28;;
39104;SDS011;46464;51.154;13.812;2022-12-24T15:07:57;9.40;;;1.83;;
39104;SDS011;46464;51.154;13.812;2022-12-24T15:13:00;5.43;;;1.80;;
39104;SDS011;46464;51.154;13.812;2022-12-24T15:15:29;7.18;;;2.15;;
39104;SDS011;46464;51.154;13.812;2022-12-24T15:17:56;6.32;;;1.33;;
39104;SDS011;46464;51.154;13.812;2022-12-24T15:20:24;7.88;;;1.98;;
39104;SDS011;46464;51.154;13.812;2022-12-24T15:22:55;4.80;;;1.52;;
39104;SDS011;46464;51.154;13.812;2022-12-24T15:25:24;6.65;;;1.70;;
39104;SDS011;46464;51.154;13.812;2022-12-24T15:27:55;5.82;;;1.38;;
39104;SDS011;46464;51.154;13.812;2022-12-24T15:30:23;5.75;;;2.13;;
39104;SDS011;46464;51.154;13.812;2022-12-24T15:32:52;4.40;;;1.50;;
39104;SDS011;46464;51.154;13.812;2022-12-24T15:35:30;7.65;;;2.10;;
39104;SDS011;46464;51.154;13.812;2022-12-24T15:38:00;5.50;;;2.10;;
39104;SDS011;46464;51.154;13.812;2022-12-24T15:40:28;5.40;;;1.95;;
39104;SDS011;46464;51.154;13.812;2022-12-24T15:42:55;5.78;;;2.42;;
39104;SDS011;46464;51.154;13.812;2022-12-24T15:45:22;7.82;;;2.50;;
39104;SDS011;46464;51.154;13.812;2022-12-24T15:47:55;5.65;;;2.05;;
39104;SDS011;46464;51.154;13.812;2022-12-24T15:50:27;9.25;;;2.47;;
39104;SDS011;46464;51.154;13.812;2022-12-24T15:53:07;4.10;;;1.00;;
39104;SDS011;46464;51.154;13.812;2022-12-24T15:55:58;4.22;;;1.30;;
39104;SDS011;46464;51.154;13.812;2022-12-24T15:58:31;3.20;;;0.88;;
39104;SDS011;46464;51.154;13.812;2022-12-24T16:01:44;4.15;;;1.05;;
39104;SDS011;46464;51.154;13.812;2022-12-24T16:03:57;2.72;;;0.88;;
39104;SDS011;46464;51.154;13.812;2022-12-24T16:06:24;4.40;;;1.10;;
39104;SDS011;46464;51.154;13.812;2022-12-24T16:08:53;3.42;;;0.90;;
39104;SDS011;46464;51.154;13.812;2022-12-24T16:11:22;2.25;;;0.82;;
39104;SDS011;46464;51.154;13.812;2022-12-24T16:16:36;2.33;;;1.10;;
39104;SDS011;46464;51.154;13.812;2022-12-24T16:19:14;4.65;;;1.30;;
39104;SDS011;46464;51.154;13.812;2022-12-24T16:21:45;2.65;;;1.30;;
39104;SDS011;46464;51.154;13.812;2022-12-24T16:24:19;4.70;;;1.55;;
39104;SDS011;46464;51.154;13.812;2022-12-24T16:26:51;4.57;;;2.05;;
39104;SDS011;46464;51.154;13.812;2022-12-24T16:29:17;4.30;;;1.55;;
39104;SDS011;46464;51.154;13.812;2022-12-24T16:31:54;2.45;;;1.13;;
39104;SDS011;46464;51.154;13.812;2022-12-24T16:34:23;4.10;;;1.67;;
39104;SDS011;46464;51.154;13.812;2022-12-24T16:36:52;4.35;;;1.60;;
39104;SDS011;46464;51.154;13.812;2022-12-24T16:39:20;4.63;;;1.63;;
39104;SDS011;46464;51.154;13.812;2022-12-24T16:41:56;2.85;;;1.55;;
39104;SDS011;46464;51.154;13.812;2022-12-24T16:44:42;3.97;;;1.88;;
39104;SDS011;46464;51.154;13.812;2022-12-24T16:47:13;5.95;;;2.55;;
39104;SDS011;46464;51.154;13.812;2022-12-24T16:49:42;3.38;;;1.92;;
39104;SDS011;46464;51.154;13.812;2022-12-24T16:52:21;4.85;;;2.33;;
39104;SDS011;46464;51.154;13.812;2022-12-24T16:54:51;6.63;;;2.85;;
39104;SDS011;46464;51.154;13.812;2022-12-24T16:57:19;5.45;;;2.83;;
39104;SDS011;46464;51.154;13.812;2022-12-24T16:59:45;6.68;;;3.78;;
39104;SDS011;46464;51.154;13.812;2022-12-24T17:02:14;7.30;;;4.30;;
39104;SDS011;46464;51.154;13.812;2022-12-24T17:04:42;9.68;;;5.97;;
39104;SDS011;46464;51.154;13.812;2022-12-24T17:07:13;8.43;;;4.90;;
39104;SDS011;46464;51.154;13.812;2022-12-24T17:09:41;10.77;;;5.63;;
39104;SDS011;46464;51.154;13.812;2022-12-24T17:12:08;6.00;;;3.60;;
39104;SDS011;46464;51.154;13.812;2022-12-24T17:17:02;8.40;;;3.47;;
39104;SDS011;46464;51.154;13.812;2022-12-24T17:19:30;6.32;;;3.00;;
39104;SDS011;46464;51.154;13.812;2022-12-24T17:21:56;7.18;;;3.15;;
39104;SDS011;46464;51.154;13.812;2022-12-24T17:24:23;2.05;;;1.42;;
39104;SDS011;46464;51.154;13.812;2022-12-24T17:26:50;4.35;;;2.05;;
39104;SDS011;46464;51.154;13.812;2022-12-24T17:29:16;5.10;;;1.77;;
39104;SDS011;46464;51.154;13.812;2022-12-24T17:31:43;3.88;;;1.70;;
39104;SDS011;46464;51.154;13.812;2022-12-24T17:34:09;3.25;;;1.85;;